»·PEaware :: UAL3122 KLAS-KLAX

UAL3122 :: KLAS-KLAX

FLIGHT INFORMATION

Flight Status: Arrived
Operator:
United Airlines
More flights by this operator :: More flights under this callsign
Pilot: Jesse M. (22378)
Aircraft: AIRBUS A320
(A320)
More flights by this aircraft type
Origin: KLAS McCarran Intl
United States
Destination: KLAX Los Angeles Intl
United States
More flights between these airports :: More routes between these airports
Route: BOACH8 RIKII SHTNR ANJLL4
File this flight plan on PilotEdge
Remarks: 104th_Knight / Youtube
Altitude:
(Current/Filed)
30,000ft
Speed:
(Current/Filed)
450kts
Departed: 03-Dec-18 03:45 PM
Arrived: 03-Dec-18 04:27 PM
Distance/Time
Traveled:
205nm/0:42
Distance/Time
To Go:
Arrived

Flight Plot

Page will automatically refresh every two minutes.

Flight plan parsing failed; only flown route is shown


Map Options




Map Legend


Flown Route
Filed Route
Departure Airport
Arrival Airport
Navaid (VOR, NDB)
Fix

Horizontal Profiles

Position Reports

Time Latitude Longitude Heading Altitude Ground
Speed
03-Dec-18 15:06 36.082203 -115.140013 47 2120ft 0kts
03-Dec-18 15:07 36.082203 -115.140013 47 2120ft 0kts
03-Dec-18 15:08 36.082203 -115.140013 47 2120ft 0kts
03-Dec-18 15:09 36.082203 -115.140013 47 2120ft 0kts
03-Dec-18 15:10 36.082203 -115.140013 47 2120ft 0kts
03-Dec-18 15:11 36.082203 -115.140013 47 2120ft 0kts
03-Dec-18 15:12 36.082203 -115.140013 47 2120ft 0kts
03-Dec-18 15:13 36.082203 -115.140013 47 2120ft 0kts
03-Dec-18 15:14 36.082203 -115.140013 47 2120ft 0kts
03-Dec-18 15:15 36.082203 -115.140013 47 2120ft 0kts
03-Dec-18 15:16 36.082203 -115.140013 47 2120ft 0kts
03-Dec-18 15:17 36.082203 -115.140013 47 2120ft 0kts
03-Dec-18 15:18 36.082203 -115.140013 47 2120ft 0kts
03-Dec-18 15:19 36.082203 -115.140013 47 2120ft 0kts
03-Dec-18 15:20 36.082203 -115.140013 47 2120ft 0kts
03-Dec-18 15:21 36.082203 -115.140013 47 2120ft 0kts
03-Dec-18 15:22 36.082203 -115.140013 47 2120ft 0kts
03-Dec-18 15:23 36.082203 -115.140013 47 2120ft 0kts
03-Dec-18 15:24 36.082203 -115.140013 47 2120ft 0kts
03-Dec-18 15:25 36.082203 -115.140013 47 2120ft 0kts
03-Dec-18 15:26 36.082203 -115.140013 47 2120ft 0kts
03-Dec-18 15:27 36.082203 -115.140013 47 2120ft 0kts
03-Dec-18 15:28 36.082203 -115.140013 47 2120ft 0kts
03-Dec-18 15:29 36.082202 -115.140014 47 2120ft 0kts
03-Dec-18 15:30 36.082202 -115.140014 47 2120ft 0kts
03-Dec-18 15:31 36.082167 -115.140062 47 2120ft 2kts
03-Dec-18 15:32 36.081960 -115.140722 100 2120ft 2kts
03-Dec-18 15:33 36.082188 -115.141183 141 2120ft 0kts
03-Dec-18 15:34 36.082188 -115.141183 141 2120ft 0kts
03-Dec-18 15:35 36.081183 -115.141256 225 2120ft 6kts
03-Dec-18 15:36 36.079592 -115.141626 180 2120ft 7kts
03-Dec-18 15:37 36.079008 -115.141631 180 2120ft 0kts
03-Dec-18 15:38 36.078510 -115.141621 166 2120ft 8kts
03-Dec-18 15:39 36.078256 -115.136870 89 2120ft 15kts
03-Dec-18 15:40 36.078259 -115.130892 89 2120ft 18kts
03-Dec-18 15:41 36.078266 -115.124450 89 2120ft 18kts
03-Dec-18 15:42 36.077590 -115.121721 131 2120ft 2kts
03-Dec-18 15:43 36.076389 -115.122395 269 2120ft 0kts
03-Dec-18 15:44 36.076412 -115.154810 271 2445ft 184kts
03-Dec-18 15:45 36.076490 -115.220566 271 4987ft 212kts
03-Dec-18 15:46 36.029836 -115.275180 199 6748ft 278kts
03-Dec-18 15:47 35.956869 -115.303639 184 7120ft 276kts
03-Dec-18 15:48 35.879657 -115.312514 184 9745ft 290kts
03-Dec-18 15:49 35.794074 -115.307960 173 11460ft 342kts
03-Dec-18 15:50 35.690842 -115.296277 176 12567ft 393kts
03-Dec-18 15:51 35.581179 -115.298606 183 14780ft 396kts
03-Dec-18 15:52 35.475086 -115.323821 212 16560ft 399kts
03-Dec-18 15:53 35.378873 -115.393967 212 18186ft 407kts
03-Dec-18 15:54 35.281257 -115.464732 213 19666ft 414kts
03-Dec-18 15:55 35.181367 -115.536980 213 20970ft 422kts
03-Dec-18 15:56 35.088639 -115.624042 228 22116ft 426kts
03-Dec-18 15:57 35.008140 -115.726941 228 23262ft 432kts
03-Dec-18 15:58 34.924480 -115.833587 228 24271ft 438kts
03-Dec-18 15:59 34.843690 -115.936003 229 26762ft 408kts
03-Dec-18 16:00 34.765276 -116.035353 229 28016ft 411kts
03-Dec-18 16:01 34.686126 -116.136257 229 29079ft 415kts
03-Dec-18 16:02 34.606323 -116.237608 229 30066ft 417kts
03-Dec-18 16:03 34.527306 -116.337628 229 28477ft 408kts
03-Dec-18 16:04 34.449374 -116.436034 229 25997ft 408kts
03-Dec-18 16:05 34.388156 -116.546911 245 24252ft 397kts
03-Dec-18 16:06 34.336695 -116.671847 245 24163ft 436kts
03-Dec-18 16:07 34.284510 -116.801387 245 23305ft 451kts
03-Dec-18 16:08 34.233676 -116.927004 245 22225ft 389kts
03-Dec-18 16:09 34.194864 -117.042979 252 19961ft 364kts
03-Dec-18 16:10 34.163997 -117.157187 251 17872ft 359kts
03-Dec-18 16:11 34.133433 -117.268240 252 16749ft 330kts
03-Dec-18 16:12 34.104955 -117.371387 252 15052ft 322kts
03-Dec-18 16:13 34.079362 -117.473489 253 13274ft 317kts
03-Dec-18 16:14 34.047042 -117.571104 247 11573ft 311kts
03-Dec-18 16:15 34.011953 -117.668713 247 10246ft 331kts
03-Dec-18 16:16 33.997749 -117.777328 263 10009ft 330kts
03-Dec-18 16:18 33.987721 -117.879090 263 9341ft 275kts
03-Dec-18 16:19 33.979162 -117.966164 263 7835ft 245kts
03-Dec-18 16:20 33.973224 -118.038967 264 6633ft 192kts
03-Dec-18 16:21 33.965675 -118.101724 263 5787ft 193kts
03-Dec-18 16:22 33.958992 -118.164389 262 3991ft 187kts
03-Dec-18 16:23 33.953697 -118.225742 261 3056ft 179kts
03-Dec-18 16:24 33.947164 -118.284175 262 2004ft 170kts
03-Dec-18 16:25 33.942254 -118.334911 262 874ft 136kts
03-Dec-18 16:26 33.937660 -118.380044 263 202ft 136kts
03-Dec-18 16:27 33.935971 -118.402884 293 112ft 16kts
03-Dec-18 16:28 33.935944 -118.408291 286 112ft 14kts
03-Dec-18 16:29 33.938077 -118.406781 83 112ft 15kts
03-Dec-18 16:30 33.940383 -118.405797 279 112ft 6kts
03-Dec-18 16:31 33.940378 -118.406084 268 112ft 0kts
03-Dec-18 16:32 33.940378 -118.406084 268 112ft 0kts
03-Dec-18 16:33 33.940378 -118.406084 268 112ft 0kts

Navigation Log

Ident Type
Flight plan parsing failed, navigation log unavailable